sensor_id;sensor_type;location;lat;lon;timestamp;temperature;humidity
3756;DHT22;1893;52.526;13.360;2023-11-19T00:02:19;4.50;99.90
3756;DHT22;1893;52.526;13.360;2023-11-19T00:04:44;4.50;99.90
3756;DHT22;1893;52.526;13.360;2023-11-19T00:07:10;4.40;99.90
3756;DHT22;1893;52.526;13.360;2023-11-19T00:09:38;4.40;99.90
3756;DHT22;1893;52.526;13.360;2023-11-19T00:12:05;4.40;99.90
3756;DHT22;1893;52.526;13.360;2023-11-19T00:14:31;4.50;99.90
3756;DHT22;1893;52.526;13.360;2023-11-19T00:16:57;4.50;99.90
3756;DHT22;1893;52.526;13.360;2023-11-19T00:19:23;4.50;99.90
3756;DHT22;1893;52.526;13.360;2023-11-19T00:21:48;4.50;99.90
3756;DHT22;1893;52.526;13.360;2023-11-19T00:24:14;4.50;99.90
3756;DHT22;1893;52.526;13.360;2023-11-19T00:26:42;4.50;99.90
3756;DHT22;1893;52.526;13.360;2023-11-19T00:29:08;4.50;99.90
3756;DHT22;1893;52.526;13.360;2023-11-19T00:31:34;4.60;99.90
3756;DHT22;1893;52.526;13.360;2023-11-19T00:34:00;4.50;99.90
3756;DHT22;1893;52.526;13.360;2023-11-19T00:36:27;4.50;99.90
3756;DHT22;1893;52.526;13.360;2023-11-19T00:38:53;4.60;99.90
3756;DHT22;1893;52.526;13.360;2023-11-19T00:41:19;4.60;99.90
3756;DHT22;1893;52.526;13.360;2023-11-19T00:43:45;4.60;99.90
3756;DHT22;1893;52.526;13.360;2023-11-19T00:46:10;4.60;99.90
3756;DHT22;1893;52.526;13.360;2023-11-19T00:48:36;4.60;99.90
3756;DHT22;1893;52.526;13.360;2023-11-19T00:51:02;4.60;99.90
3756;DHT22;1893;52.526;13.360;2023-11-19T00:53:29;4.60;99.90
3756;DHT22;1893;52.526;13.360;2023-11-19T00:55:55;4.60;99.90
3756;DHT22;1893;52.526;13.360;2023-11-19T00:58:21;4.70;99.90
3756;DHT22;1893;52.526;13.360;2023-11-19T01:00:46;4.70;99.90
3756;DHT22;1893;52.526;13.360;2023-11-19T01:03:12;4.70;99.90
3756;DHT22;1893;52.526;13.360;2023-11-19T01:05:38;4.70;99.90
3756;DHT22;1893;52.526;13.360;2023-11-19T01:08:04;4.70;99.90
3756;DHT22;1893;52.526;13.360;2023-11-19T01:10:31;4.80;99.90
3756;DHT22;1893;52.526;13.360;2023-11-19T01:12:56;4.80;99.90
3756;DHT22;1893;52.526;13.360;2023-11-19T01:15:23;4.80;99.90
3756;DHT22;1893;52.526;13.360;2023-11-19T01:17:48;4.80;99.90
3756;DHT22;1893;52.526;13.360;2023-11-19T01:20:14;4.80;99.90
3756;DHT22;1893;52.526;13.360;2023-11-19T01:22:40;4.80;99.90
3756;DHT22;1893;52.526;13.360;2023-11-19T01:25:06;4.80;99.90
3756;DHT22;1893;52.526;13.360;2023-11-19T01:27:32;4.80;99.90
3756;DHT22;1893;52.526;13.360;2023-11-19T01:30:00;4.80;99.90
3756;DHT22;1893;52.526;13.360;2023-11-19T01:32:31;5.00;99.90
3756;DHT22;1893;52.526;13.360;2023-11-19T01:34:57;4.90;99.90
3756;DHT22;1893;52.526;13.360;2023-11-19T01:37:23;4.90;99.90
3756;DHT22;1893;52.526;13.360;2023-11-19T01:39:48;4.90;99.90
3756;DHT22;1893;52.526;13.360;2023-11-19T01:42:14;5.00;99.90
3756;DHT22;1893;52.526;13.360;2023-11-19T01:44:41;4.90;99.90
3756;DHT22;1893;52.526;13.360;2023-11-19T01:47:07;4.90;99.90
3756;DHT22;1893;52.526;13.360;2023-11-19T01:49:33;4.90;99.90
3756;DHT22;1893;52.526;13.360;2023-11-19T01:52:00;4.90;99.90
3756;DHT22;1893;52.526;13.360;2023-11-19T01:54:26;5.00;99.90
3756;DHT22;1893;52.526;13.360;2023-11-19T01:56:53;4.90;99.90
3756;DHT22;1893;52.526;13.360;2023-11-19T01:59:22;4.80;99.90
3756;DHT22;1893;52.526;13.360;2023-11-19T02:01:52;4.80;99.90
3756;DHT22;1893;52.526;13.360;2023-11-19T02:04:18;4.80;99.90
3756;DHT22;1893;52.526;13.360;2023-11-19T02:06:45;4.80;99.90
3756;DHT22;1893;52.526;13.360;2023-11-19T02:09:12;4.80;99.90
3756;DHT22;1893;52.526;13.360;2023-11-19T02:11:41;4.80;99.90
3756;DHT22;1893;52.526;13.360;2023-11-19T02:14:07;4.80;99.90
3756;DHT22;1893;52.526;13.360;2023-11-19T02:16:32;4.70;99.90
3756;DHT22;1893;52.526;13.360;2023-11-19T02:18:58;4.70;99.90
3756;DHT22;1893;52.526;13.360;2023-11-19T02:21:24;4.70;99.90
3756;DHT22;1893;52.526;13.360;2023-11-19T02:23:50;4.70;99.90
3756;DHT22;1893;52.526;13.360;2023-11-19T02:26:59;4.90;99.90
3756;DHT22;1893;52.526;13.360;2023-11-19T02:29:27;4.70;99.90
3756;DHT22;1893;52.526;13.360;2023-11-19T02:31:53;4.70;99.90
3756;DHT22;1893;52.526;13.360;2023-11-19T02:34:20;4.80;99.90
3756;DHT22;1893;52.526;13.360;2023-11-19T02:36:47;4.80;99.90
3756;DHT22;1893;52.526;13.360;2023-11-19T02:39:12;4.90;99.90
3756;DHT22;1893;52.526;13.360;2023-11-19T02:41:38;4.90;99.90
3756;DHT22;1893;52.526;13.360;2023-11-19T02:44:06;4.90;99.90
3756;DHT22;1893;52.526;13.360;2023-11-19T02:46:31;4.90;99.90
3756;DHT22;1893;52.526;13.360;2023-11-19T02:48:57;4.90;99.90
3756;DHT22;1893;52.526;13.360;2023-11-19T02:51:23;4.90;99.90
3756;DHT22;1893;52.526;13.360;2023-11-19T02:53:49;5.20;99.90
3756;DHT22;1893;52.526;13.360;2023-11-19T02:56:14;4.90;99.90
3756;DHT22;1893;52.526;13.360;2023-11-19T02:58:51;5.00;99.90
3756;DHT22;1893;52.526;13.360;2023-11-19T03:01:24;5.00;99.90
3756;DHT22;1893;52.526;13.360;2023-11-19T03:03:55;5.00;99.90
3756;DHT22;1893;52.526;13.360;2023-11-19T03:06:22;5.00;99.90
3756;DHT22;1893;52.526;13.360;2023-11-19T03:08:48;5.00;99.90
3756;DHT22;1893;52.526;13.360;2023-11-19T03:11:14;5.00;99.90
3756;DHT22;1893;52.526;13.360;2023-11-19T03:13:39;5.00;99.90
3756;DHT22;1893;52.526;13.360;2023-11-19T03:16:05;5.00;99.90
3756;DHT22;1893;52.526;13.360;2023-11-19T03:18:31;5.00;99.90
3756;DHT22;1893;52.526;13.360;2023-11-19T03:20:57;5.10;99.90
3756;DHT22;1893;52.526;13.360;2023-11-19T03:23:25;5.10;99.90
3756;DHT22;1893;52.526;13.360;2023-11-19T03:25:53;5.00;99.90
3756;DHT22;1893;52.526;13.360;2023-11-19T03:28:19;5.00;99.90
3756;DHT22;1893;52.526;13.360;2023-11-19T03:30:45;5.00;99.90
3756;DHT22;1893;52.526;13.360;2023-11-19T03:33:10;5.00;99.90
3756;DHT22;1893;52.526;13.360;2023-11-19T03:35:36;4.90;99.90
3756;DHT22;1893;52.526;13.360;2023-11-19T03:38:02;4.80;99.90
3756;DHT22;1893;52.526;13.360;2023-11-19T03:40:28;4.70;99.90
3756;DHT22;1893;52.526;13.360;2023-11-19T03:42:56;4.60;99.90
3756;DHT22;1893;52.526;13.360;2023-11-19T03:45:22;4.50;99.90
3756;DHT22;1893;52.526;13.360;2023-11-19T03:47:48;4.50;99.90
3756;DHT22;1893;52.526;13.360;2023-11-19T03:50:15;4.40;99.90
3756;DHT22;1893;52.526;13.360;2023-11-19T03:52:41;4.40;99.90
3756;DHT22;1893;52.526;13.360;2023-11-19T03:55:07;4.30;99.90
3756;DHT22;1893;52.526;13.360;2023-11-19T03:57:34;4.30;99.90
3756;DHT22;1893;52.526;13.360;2023-11-19T04:00:00;4.20;99.90
3756;DHT22;1893;52.526;13.360;2023-11-19T04:02:31;4.30;99.90
3756;DHT22;1893;52.526;13.360;2023-11-19T04:04:56;4.30;99.90
3756;DHT22;1893;52.526;13.360;2023-11-19T04:07:22;4.30;99.90
3756;DHT22;1893;52.526;13.360;2023-11-19T04:09:48;4.30;99.90
3756;DHT22;1893;52.526;13.360;2023-11-19T04:12:13;4.30;99.90
3756;DHT22;1893;52.526;13.360;2023-11-19T04:14:39;4.30;99.90
3756;DHT22;1893;52.526;13.360;2023-11-19T04:17:06;4.20;99.90
3756;DHT22;1893;52.526;13.360;2023-11-19T04:19:31;4.50;99.90
3756;DHT22;1893;52.526;13.360;2023-11-19T04:21:58;4.20;99.90
3756;DHT22;1893;52.526;13.360;2023-11-19T04:24:23;4.20;99.90
3756;DHT22;1893;52.526;13.360;2023-11-19T04:26:49;4.30;99.90
3756;DHT22;1893;52.526;13.360;2023-11-19T04:29:16;4.20;99.90
3756;DHT22;1893;52.526;13.360;2023-11-19T04:31:45;4.30;99.90
3756;DHT22;1893;52.526;13.360;2023-11-19T04:34:11;4.30;99.90
3756;DHT22;1893;52.526;13.360;2023-11-19T04:36:37;4.30;99.90
3756;DHT22;1893;52.526;13.360;2023-11-19T04:39:03;4.40;99.90
3756;DHT22;1893;52.526;13.360;2023-11-19T04:41:47;4.40;99.90
3756;DHT22;1893;52.526;13.360;2023-11-19T04:44:18;4.30;99.90
3756;DHT22;1893;52.526;13.360;2023-11-19T04:46:44;4.40;99.90
3756;DHT22;1893;52.526;13.360;2023-11-19T04:49:11;4.30;99.90
3756;DHT22;1893;52.526;13.360;2023-11-19T04:51:44;4.40;99.90
3756;DHT22;1893;52.526;13.360;2023-11-19T04:54:11;4.30;99.90
3756;DHT22;1893;52.526;13.360;2023-11-19T04:56:37;4.30;99.90
3756;DHT22;1893;52.526;13.360;2023-11-19T04:59:04;4.30;99.90
3756;DHT22;1893;52.526;13.360;2023-11-19T05:01:31;4.30;99.90
3756;DHT22;1893;52.526;13.360;2023-11-19T05:03:57;4.30;99.90
3756;DHT22;1893;52.526;13.360;2023-11-19T05:06:29;4.30;99.90
3756;DHT22;1893;52.526;13.360;2023-11-19T05:08:56;4.30;99.90
3756;DHT22;1893;52.526;13.360;2023-11-19T05:11:22;4.30;99.90
3756;DHT22;1893;52.526;13.360;2023-11-19T05:13:47;4.30;99.90
3756;DHT22;1893;52.526;13.360;2023-11-19T05:16:13;4.30;99.90
3756;DHT22;1893;52.526;13.360;2023-11-19T05:18:40;4.30;99.90
3756;DHT22;1893;52.526;13.360;2023-11-19T05:21:06;4.30;99.90
3756;DHT22;1893;52.526;13.360;2023-11-19T05:23:32;4.30;99.90
3756;DHT22;1893;52.526;13.360;2023-11-19T05:26:01;4.30;99.90
3756;DHT22;1893;52.526;13.360;2023-11-19T05:28:26;4.20;99.90
3756;DHT22;1893;52.526;13.360;2023-11-19T05:30:52;4.30;99.90
3756;DHT22;1893;52.526;13.360;2023-11-19T05:33:18;4.30;99.90
3756;DHT22;1893;52.526;13.360;2023-11-19T05:35:43;4.20;99.90
3756;DHT22;1893;52.526;13.360;2023-11-19T05:38:09;4.30;99.90
3756;DHT22;1893;52.526;13.360;2023-11-19T05:40:35;4.20;99.90
3756;DHT22;1893;52.526;13.360;2023-11-19T05:43:01;4.20;99.90
3756;DHT22;1893;52.526;13.360;2023-11-19T05:45:26;4.50;99.90
3756;DHT22;1893;52.526;13.360;2023-11-19T05:47:52;4.20;99.90
3756;DHT22;1893;52.526;13.360;2023-11-19T05:50:18;4.20;99.90
3756;DHT22;1893;52.526;13.360;2023-11-19T05:52:44;4.20;99.90
3756;DHT22;1893;52.526;13.360;2023-11-19T05:55:09;4.50;99.90
3756;DHT22;1893;52.526;13.360;2023-11-19T05:57:39;4.30;99.90
3756;DHT22;1893;52.526;13.360;2023-11-19T06:00:08;4.30;99.90
3756;DHT22;1893;52.526;13.360;2023-11-19T06:02:36;4.30;99.90
3756;DHT22;1893;52.526;13.360;2023-11-19T06:05:04;4.30;99.90
3756;DHT22;1893;52.526;13.360;2023-11-19T06:07:31;4.30;99.90
3756;DHT22;1893;52.526;13.360;2023-11-19T06:09:57;4.30;99.90
3756;DHT22;1893;52.526;13.360;2023-11-19T06:12:22;4.30;99.90
3756;DHT22;1893;52.526;13.360;2023-11-19T06:14:48;4.50;99.90
3756;DHT22;1893;52.526;13.360;2023-11-19T06:17:13;4.30;99.90
3756;DHT22;1893;52.526;13.360;2023-11-19T06:19:39;4.40;99.90
3756;DHT22;1893;52.526;13.360;2023-11-19T06:22:05;4.40;99.90
3756;DHT22;1893;52.526;13.360;2023-11-19T06:24:30;4.40;99.90
3756;DHT22;1893;52.526;13.360;2023-11-19T06:26:56;4.40;99.90
3756;DHT22;1893;52.526;13.360;2023-11-19T06:29:21;4.50;99.90
3756;DHT22;1893;52.526;13.360;2023-11-19T06:31:47;4.40;99.90
3756;DHT22;1893;52.526;13.360;2023-11-19T06:34:15;4.40;99.90
3756;DHT22;1893;52.526;13.360;2023-11-19T06:36:41;4.40;99.90
3756;DHT22;1893;52.526;13.360;2023-11-19T06:39:09;4.70;99.90
3756;DHT22;1893;52.526;13.360;2023-11-19T06:41:34;4.50;99.90
3756;DHT22;1893;52.526;13.360;2023-11-19T06:44:03;4.40;99.90
3756;DHT22;1893;52.526;13.360;2023-11-19T06:46:30;4.50;99.90
3756;DHT22;1893;52.526;13.360;2023-11-19T06:48:56;4.50;99.90
3756;DHT22;1893;52.526;13.360;2023-11-19T06:51:22;4.50;99.90
3756;DHT22;1893;52.526;13.360;2023-11-19T06:53:49;4.60;99.90
3756;DHT22;1893;52.526;13.360;2023-11-19T06:56:22;4.60;99.90
3756;DHT22;1893;52.526;13.360;2023-11-19T06:58:48;4.60;99.90
3756;DHT22;1893;52.526;13.360;2023-11-19T07:01:15;4.60;99.90
3756;DHT22;1893;52.526;13.360;2023-11-19T07:03:41;4.60;99.90
3756;DHT22;1893;52.526;13.360;2023-11-19T07:06:07;4.60;99.90
3756;DHT22;1893;52.526;13.360;2023-11-19T07:08:32;4.60;99.90
3756;DHT22;1893;52.526;13.360;2023-11-19T07:10:58;4.60;99.90
3756;DHT22;1893;52.526;13.360;2023-11-19T07:13:24;4.70;99.90
3756;DHT22;1893;52.526;13.360;2023-11-19T07:15:49;4.70;99.90
3756;DHT22;1893;52.526;13.360;2023-11-19T07:18:15;4.70;99.90
3756;DHT22;1893;52.526;13.360;2023-11-19T07:20:41;4.70;99.90
3756;DHT22;1893;52.526;13.360;2023-11-19T07:23:07;4.70;99.90
3756;DHT22;1893;52.526;13.360;2023-11-19T07:25:34;4.70;99.90
3756;DHT22;1893;52.526;13.360;2023-11-19T07:28:01;4.70;99.90
3756;DHT22;1893;52.526;13.360;2023-11-19T07:30:29;4.70;99.90
3756;DHT22;1893;52.526;13.360;2023-11-19T07:32:54;4.80;99.90
3756;DHT22;1893;52.526;13.360;2023-11-19T07:35:20;4.80;99.90
3756;DHT22;1893;52.526;13.360;2023-11-19T07:37:45;4.80;99.90
3756;DHT22;1893;52.526;13.360;2023-11-19T07:40:13;4.80;99.90
3756;DHT22;1893;52.526;13.360;2023-11-19T07:42:39;4.80;99.90
3756;DHT22;1893;52.526;13.360;2023-11-19T07:45:05;4.90;99.90
3756;DHT22;1893;52.526;13.360;2023-11-19T07:47:31;4.90;99.90
3756;DHT22;1893;52.526;13.360;2023-11-19T07:49:56;4.90;99.90
3756;DHT22;1893;52.526;13.360;2023-11-19T07:52:22;5.00;99.90
3756;DHT22;1893;52.526;13.360;2023-11-19T07:54:48;5.00;99.90
3756;DHT22;1893;52.526;13.360;2023-11-19T07:57:13;5.10;99.90
3756;DHT22;1893;52.526;13.360;2023-11-19T07:59:39;5.10;99.90
3756;DHT22;1893;52.526;13.360;2023-11-19T08:02:05;5.10;99.90
3756;DHT22;1893;52.526;13.360;2023-11-19T08:04:31;5.20;99.90
3756;DHT22;1893;52.526;13.360;2023-11-19T08:06:56;5.20;99.90
3756;DHT22;1893;52.526;13.360;2023-11-19T08:09:22;5.20;99.90
3756;DHT22;1893;52.526;13.360;2023-11-19T08:11:48;5.50;99.90
3756;DHT22;1893;52.526;13.360;2023-11-19T08:14:15;5.30;99.90
3756;DHT22;1893;52.526;13.360;2023-11-19T08:16:40;5.30;99.90
3756;DHT22;1893;52.526;13.360;2023-11-19T08:19:06;5.40;99.90
3756;DHT22;1893;52.526;13.360;2023-11-19T08:21:32;5.50;99.90
3756;DHT22;1893;52.526;13.360;2023-11-19T08:23:57;5.50;99.90
3756;DHT22;1893;52.526;13.360;2023-11-19T08:26:23;5.70;99.90
3756;DHT22;1893;52.526;13.360;2023-11-19T08:28:49;5.60;99.90
3756;DHT22;1893;52.526;13.360;2023-11-19T08:31:14;5.80;99.90
3756;DHT22;1893;52.526;13.360;2023-11-19T08:33:40;5.60;99.90
3756;DHT22;1893;52.526;13.360;2023-11-19T08:36:06;5.70;99.90
3756;DHT22;1893;52.526;13.360;2023-11-19T08:38:32;5.70;99.90
3756;DHT22;1893;52.526;13.360;2023-11-19T08:40:57;5.80;99.90
3756;DHT22;1893;52.526;13.360;2023-11-19T08:43:26;5.80;99.90
3756;DHT22;1893;52.526;13.360;2023-11-19T08:45:51;5.80;99.90
3756;DHT22;1893;52.526;13.360;2023-11-19T08:48:17;6.00;99.90
3756;DHT22;1893;52.526;13.360;2023-11-19T08:50:42;6.00;99.90
3756;DHT22;1893;52.526;13.360;2023-11-19T08:53:08;6.10;99.90
3756;DHT22;1893;52.526;13.360;2023-11-19T08:55:34;6.20;99.90
3756;DHT22;1893;52.526;13.360;2023-11-19T08:57:59;6.20;99.90
3756;DHT22;1893;52.526;13.360;2023-11-19T09:00:25;6.30;99.90
3756;DHT22;1893;52.526;13.360;2023-11-19T09:02:51;6.20;99.90
3756;DHT22;1893;52.526;13.360;2023-11-19T09:05:16;6.30;99.90
3756;DHT22;1893;52.526;13.360;2023-11-19T09:07:42;6.30;99.90
3756;DHT22;1893;52.526;13.360;2023-11-19T09:10:08;6.40;99.90
3756;DHT22;1893;52.526;13.360;2023-11-19T09:12:34;6.40;99.90
3756;DHT22;1893;52.526;13.360;2023-11-19T09:15:00;6.50;99.90
3756;DHT22;1893;52.526;13.360;2023-11-19T09:17:26;6.50;99.90
3756;DHT22;1893;52.526;13.360;2023-11-19T09:19:51;6.70;99.90
3756;DHT22;1893;52.526;13.360;2023-11-19T09:22:17;6.80;99.90
3756;DHT22;1893;52.526;13.360;2023-11-19T09:24:42;6.90;99.90
3756;DHT22;1893;52.526;13.360;2023-11-19T09:27:09;6.90;99.90
3756;DHT22;1893;52.526;13.360;2023-11-19T09:29:35;7.10;99.90
3756;DHT22;1893;52.526;13.360;2023-11-19T09:32:01;7.20;99.90
3756;DHT22;1893;52.526;13.360;2023-11-19T09:34:27;7.20;99.90
3756;DHT22;1893;52.526;13.360;2023-11-19T09:36:53;7.30;99.90
3756;DHT22;1893;52.526;13.360;2023-11-19T09:39:19;7.50;99.90
3756;DHT22;1893;52.526;13.360;2023-11-19T09:41:46;7.50;99.90
3756;DHT22;1893;52.526;13.360;2023-11-19T09:44:12;7.60;99.90
3756;DHT22;1893;52.526;13.360;2023-11-19T09:46:40;7.70;99.90
3756;DHT22;1893;52.526;13.360;2023-11-19T09:49:06;8.20;99.90
3756;DHT22;1893;52.526;13.360;2023-11-19T09:51:35;8.30;99.90
3756;DHT22;1893;52.526;13.360;2023-11-19T09:54:01;8.30;99.90
3756;DHT22;1893;52.526;13.360;2023-11-19T09:56:29;8.40;99.90
3756;DHT22;1893;52.526;13.360;2023-11-19T09:58:55;8.40;99.90
3756;DHT22;1893;52.526;13.360;2023-11-19T10:01:21;8.40;99.90
3756;DHT22;1893;52.526;13.360;2023-11-19T10:03:47;8.50;99.90
3756;DHT22;1893;52.526;13.360;2023-11-19T10:06:15;8.40;99.90
3756;DHT22;1893;52.526;13.360;2023-11-19T10:08:41;8.50;99.90
3756;DHT22;1893;52.526;13.360;2023-11-19T10:11:07;8.50;99.90
3756;DHT22;1893;52.526;13.360;2023-11-19T10:13:37;8.60;99.90
3756;DHT22;1893;52.526;13.360;2023-11-19T10:16:14;8.80;99.90
3756;DHT22;1893;52.526;13.360;2023-11-19T10:18:47;9.30;99.90
3756;DHT22;1893;52.526;13.360;2023-11-19T10:21:14;9.80;99.90
3756;DHT22;1893;52.526;13.360;2023-11-19T10:23:52;9.80;99.90
3756;DHT22;1893;52.526;13.360;2023-11-19T10:26:19;9.50;99.90
3756;DHT22;1893;52.526;13.360;2023-11-19T10:28:46;9.40;99.90
3756;DHT22;1893;52.526;13.360;2023-11-19T10:31:17;9.50;99.90
3756;DHT22;1893;52.526;13.360;2023-11-19T10:33:43;9.50;99.90
3756;DHT22;1893;52.526;13.360;2023-11-19T10:36:11;10.00;99.90
3756;DHT22;1893;52.526;13.360;2023-11-19T10:38:40;10.90;99.90
3756;DHT22;1893;52.526;13.360;2023-11-19T10:41:06;11.80;99.90
3756;DHT22;1893;52.526;13.360;2023-11-19T10:43:43;11.90;99.90
3756;DHT22;1893;52.526;13.360;2023-11-19T10:46:13;11.30;99.90
3756;DHT22;1893;52.526;13.360;2023-11-19T10:48:39;10.90;99.90
3756;DHT22;1893;52.526;13.360;2023-11-19T10:51:07;10.90;99.90
3756;DHT22;1893;52.526;13.360;2023-11-19T10:53:37;10.90;99.90
3756;DHT22;1893;52.526;13.360;2023-11-19T10:56:10;11.00;99.90
3756;DHT22;1893;52.526;13.360;2023-11-19T10:58:37;11.00;99.90
3756;DHT22;1893;52.526;13.360;2023-11-19T11:01:13;11.40;99.90
3756;DHT22;1893;52.526;13.360;2023-11-19T11:03:41;11.20;99.90
3756;DHT22;1893;52.526;13.360;2023-11-19T11:06:09;11.00;99.90
3756;DHT22;1893;52.526;13.360;2023-11-19T11:08:37;10.90;99.90
3756;DHT22;1893;52.526;13.360;2023-11-19T11:11:03;10.90;99.90
3756;DHT22;1893;52.526;13.360;2023-11-19T11:13:31;11.90;99.90
3756;DHT22;1893;52.526;13.360;2023-11-19T11:15:57;12.10;99.90
3756;DHT22;1893;52.526;13.360;2023-11-19T11:18:24;12.10;99.90
3756;DHT22;1893;52.526;13.360;2023-11-19T11:21:14;12.20;99.90
3756;DHT22;1893;52.526;13.360;2023-11-19T11:27:17;13.00;99.90
3756;DHT22;1893;52.526;13.360;2023-11-19T11:30:19;12.40;99.90
3756;DHT22;1893;52.526;13.360;2023-11-19T11:33:38;11.70;99.90
3756;DHT22;1893;52.526;13.360;2023-11-19T11:38:36;13.50;99.90
3756;DHT22;1893;52.526;13.360;2023-11-19T11:43:51;14.20;99.90
3756;DHT22;1893;52.526;13.360;2023-11-19T11:49:03;14.90;99.90
3756;DHT22;1893;52.526;13.360;2023-11-19T11:54:11;14.30;99.90
3756;DHT22;1893;52.526;13.360;2023-11-19T11:56:37;13.80;99.90
3756;DHT22;1893;52.526;13.360;2023-11-19T11:59:07;13.40;99.90
3756;DHT22;1893;52.526;13.360;2023-11-19T12:01:33;12.80;99.90
3756;DHT22;1893;52.526;13.360;2023-11-19T12:03:58;12.50;99.90
3756;DHT22;1893;52.526;13.360;2023-11-19T12:06:27;12.20;99.90
3756;DHT22;1893;52.526;13.360;2023-11-19T12:08:59;12.10;99.90
3756;DHT22;1893;52.526;13.360;2023-11-19T12:11:25;11.90;99.90
3756;DHT22;1893;52.526;13.360;2023-11-19T12:13:56;11.90;99.90
3756;DHT22;1893;52.526;13.360;2023-11-19T12:16:24;11.90;99.90
3756;DHT22;1893;52.526;13.360;2023-11-19T12:18:50;11.80;99.90
3756;DHT22;1893;52.526;13.360;2023-11-19T12:21:29;11.80;99.90
3756;DHT22;1893;52.526;13.360;2023-11-19T12:23:57;11.90;99.90
3756;DHT22;1893;52.526;13.360;2023-11-19T12:26:36;11.80;99.90
3756;DHT22;1893;52.526;13.360;2023-11-19T12:29:02;11.80;99.90
3756;DHT22;1893;52.526;13.360;2023-11-19T12:31:29;11.70;99.90
3756;DHT22;1893;52.526;13.360;2023-11-19T12:33:56;11.60;99.90
3756;DHT22;1893;52.526;13.360;2023-11-19T12:36:21;11.60;99.90
3756;DHT22;1893;52.526;13.360;2023-11-19T12:38:48;11.50;99.90
3756;DHT22;1893;52.526;13.360;2023-11-19T12:41:14;11.50;99.90
3756;DHT22;1893;52.526;13.360;2023-11-19T12:43:43;11.40;99.90
3756;DHT22;1893;52.526;13.360;2023-11-19T12:46:22;11.30;99.90
3756;DHT22;1893;52.526;13.360;2023-11-19T12:48:48;11.30;99.90
3756;DHT22;1893;52.526;13.360;2023-11-19T12:51:14;11.30;99.90
3756;DHT22;1893;52.526;13.360;2023-11-19T12:53:51;11.40;99.90
3756;DHT22;1893;52.526;13.360;2023-11-19T12:56:20;11.50;99.90
3756;DHT22;1893;52.526;13.360;2023-11-19T12:58:46;11.60;99.90
3756;DHT22;1893;52.526;13.360;2023-11-19T13:01:16;11.60;99.90
3756;DHT22;1893;52.526;13.360;2023-11-19T13:03:42;11.50;99.90
3756;DHT22;1893;52.526;13.360;2023-11-19T13:06:13;11.50;99.90
3756;DHT22;1893;52.526;13.360;2023-11-19T13:08:42;11.50;99.90
3756;DHT22;1893;52.526;13.360;2023-11-19T13:11:09;11.50;99.90
3756;DHT22;1893;52.526;13.360;2023-11-19T13:16:20;11.70;99.90
3756;DHT22;1893;52.526;13.360;2023-11-19T13:18:45;11.80;99.90
3756;DHT22;1893;52.526;13.360;2023-11-19T13:21:11;11.80;99.90
3756;DHT22;1893;52.526;13.360;2023-11-19T13:23:37;11.80;99.90
3756;DHT22;1893;52.526;13.360;2023-11-19T13:26:03;11.80;99.90
3756;DHT22;1893;52.526;13.360;2023-11-19T13:28:29;11.70;99.90
3756;DHT22;1893;52.526;13.360;2023-11-19T13:30:55;11.60;99.90
3756;DHT22;1893;52.526;13.360;2023-11-19T13:33:20;11.50;99.90
3756;DHT22;1893;52.526;13.360;2023-11-19T13:35:46;11.50;99.90
3756;DHT22;1893;52.526;13.360;2023-11-19T13:38:12;11.50;99.90
3756;DHT22;1893;52.526;13.360;2023-11-19T13:40:37;11.50;99.90
3756;DHT22;1893;52.526;13.360;2023-11-19T13:43:04;11.40;99.90
3756;DHT22;1893;52.526;13.360;2023-11-19T13:45:30;11.40;99.90
3756;DHT22;1893;52.526;13.360;2023-11-19T13:47:56;11.50;99.90
3756;DHT22;1893;52.526;13.360;2023-11-19T13:50:21;11.40;99.90
3756;DHT22;1893;52.526;13.360;2023-11-19T13:52:48;11.50;99.90
3756;DHT22;1893;52.526;13.360;2023-11-19T13:55:14;11.40;99.90
3756;DHT22;1893;52.526;13.360;2023-11-19T13:57:40;11.30;99.90
3756;DHT22;1893;52.526;13.360;2023-11-19T14:00:08;11.30;99.90
3756;DHT22;1893;52.526;13.360;2023-11-19T14:02:47;11.30;99.90
3756;DHT22;1893;52.526;13.360;2023-11-19T14:05:14;11.30;99.90
3756;DHT22;1893;52.526;13.360;2023-11-19T14:07:43;11.40;99.90
3756;DHT22;1893;52.526;13.360;2023-11-19T14:10:09;11.40;99.90
3756;DHT22;1893;52.526;13.360;2023-11-19T14:12:37;11.50;99.90
3756;DHT22;1893;52.526;13.360;2023-11-19T14:15:07;11.40;99.90
3756;DHT22;1893;52.526;13.360;2023-11-19T14:17:34;11.40;99.90
3756;DHT22;1893;52.526;13.360;2023-11-19T14:20:00;11.40;99.90
3756;DHT22;1893;52.526;13.360;2023-11-19T14:22:26;11.30;99.90
3756;DHT22;1893;52.526;13.360;2023-11-19T14:24:52;11.30;99.90
3756;DHT22;1893;52.526;13.360;2023-11-19T14:27:18;11.30;99.90
3756;DHT22;1893;52.526;13.360;2023-11-19T14:29:44;11.30;99.90
3756;DHT22;1893;52.526;13.360;2023-11-19T14:32:12;11.30;99.90
3756;DHT22;1893;52.526;13.360;2023-11-19T14:34:38;11.30;99.90
3756;DHT22;1893;52.526;13.360;2023-11-19T14:37:04;11.30;99.90
3756;DHT22;1893;52.526;13.360;2023-11-19T14:39:29;11.20;99.90
3756;DHT22;1893;52.526;13.360;2023-11-19T14:41:57;11.20;99.90
3756;DHT22;1893;52.526;13.360;2023-11-19T14:44:29;11.20;99.90
3756;DHT22;1893;52.526;13.360;2023-11-19T14:46:55;11.20;99.90
3756;DHT22;1893;52.526;13.360;2023-11-19T14:49:21;11.20;99.90
3756;DHT22;1893;52.526;13.360;2023-11-19T14:51:47;11.20;99.90
3756;DHT22;1893;52.526;13.360;2023-11-19T14:54:12;11.20;99.90
3756;DHT22;1893;52.526;13.360;2023-11-19T14:56:40;11.20;99.90
3756;DHT22;1893;52.526;13.360;2023-11-19T14:59:06;11.20;99.90
3756;DHT22;1893;52.526;13.360;2023-11-19T15:01:31;11.20;99.90
3756;DHT22;1893;52.526;13.360;2023-11-19T15:03:57;11.10;99.90
3756;DHT22;1893;52.526;13.360;2023-11-19T15:06:23;11.10;99.90
3756;DHT22;1893;52.526;13.360;2023-11-19T15:08:50;11.10;99.90
3756;DHT22;1893;52.526;13.360;2023-11-19T15:11:16;11.20;99.90
3756;DHT22;1893;52.526;13.360;2023-11-19T15:13:42;11.10;99.90
3756;DHT22;1893;52.526;13.360;2023-11-19T15:16:08;11.10;99.90
3756;DHT22;1893;52.526;13.360;2023-11-19T15:18:37;11.10;99.90
3756;DHT22;1893;52.526;13.360;2023-11-19T15:21:03;11.10;99.90
3756;DHT22;1893;52.526;13.360;2023-11-19T15:23:29;11.10;99.90
3756;DHT22;1893;52.526;13.360;2023-11-19T15:25:55;11.10;99.90
3756;DHT22;1893;52.526;13.360;2023-11-19T15:28:21;11.10;99.90
3756;DHT22;1893;52.526;13.360;2023-11-19T15:30:47;11.10;99.90
3756;DHT22;1893;52.526;13.360;2023-11-19T15:33:12;11.00;99.90
3756;DHT22;1893;52.526;13.360;2023-11-19T15:35:38;11.00;99.90
3756;DHT22;1893;52.526;13.360;2023-11-19T15:38:04;11.00;99.90
3756;DHT22;1893;52.526;13.360;2023-11-19T15:40:32;11.00;99.90
3756;DHT22;1893;52.526;13.360;2023-11-19T15:42:58;10.90;99.90
3756;DHT22;1893;52.526;13.360;2023-11-19T15:45:24;11.00;99.90
3756;DHT22;1893;52.526;13.360;2023-11-19T15:47:50;10.90;99.90
3756;DHT22;1893;52.526;13.360;2023-11-19T15:50:15;10.90;99.90
3756;DHT22;1893;52.526;13.360;2023-11-19T15:52:41;10.90;99.90
3756;DHT22;1893;52.526;13.360;2023-11-19T15:55:09;10.90;99.90
3756;DHT22;1893;52.526;13.360;2023-11-19T15:57:37;10.90;99.90
3756;DHT22;1893;52.526;13.360;2023-11-19T16:00:03;10.80;99.90
3756;DHT22;1893;52.526;13.360;2023-11-19T16:02:30;10.80;99.90
3756;DHT22;1893;52.526;13.360;2023-11-19T16:04:55;10.80;99.90
3756;DHT22;1893;52.526;13.360;2023-11-19T16:07:21;10.80;99.90
3756;DHT22;1893;52.526;13.360;2023-11-19T16:09:47;10.80;99.90
3756;DHT22;1893;52.526;13.360;2023-11-19T16:12:14;10.80;99.90
3756;DHT22;1893;52.526;13.360;2023-11-19T16:14:39;10.80;99.90